Time;durP1;ratioP1;P1;durP2;ratioP2;P2;SDS_P1;SDS_P2;PMS_P1;PMS_P2;Temp;Humidity;BMP_temperature;BMP_pressure;BME280_temperature;BME280_humidity;BME280_pressure;Samples;Min_cycle;Max_cycle;Signal;HPM_P1;HPM_P2
2023/12/09 00:01:27;;;;;;;14.60;11.60;;;;;;;;;;85602;210;3028588;-39
2023/12/09 00:04:06;;;;;;;14.30;12.00;;;;;;;;;;85574;210;3033138;-37
2023/12/09 00:06:52;;;;;;;14.80;11.70;;;;;;;;;;85632;210;3030579;-39
2023/12/09 00:09:33;;;;;;;14.20;11.60;;;;;;;;;;85637;210;3031719;-38
2023/12/09 00:12:13;;;;;;;14.40;12.00;;;;;;;;;;85598;210;3028802;-39
2023/12/09 00:14:53;;;;;;;15.30;12.10;;;;;;;;;;85666;210;3027596;-39
2023/12/09 00:17:32;;;;;;;14.50;12.10;;;;;;;;;;85640;210;3030582;-40
2023/12/09 00:20:12;;;;;;;14.30;11.70;;;;;;;;;;85574;210;3031988;-38
2023/12/09 00:22:55;;;;;;;14.20;12.00;;;;;;;;;;85609;210;3027885;-40
2023/12/09 00:25:37;;;;;;;14.00;11.70;;;;;;;;;;85680;210;3027645;-39
2023/12/09 00:28:20;;;;;;;13.80;11.50;;;;;;;;;;85631;210;3031879;-39
2023/12/09 00:30:58;;;;;;;13.80;11.40;;;;;;;;;;85647;210;3032168;-39
2023/12/09 00:33:39;;;;;;;14.70;11.70;;;;;;;;;;85612;210;3028649;-39
2023/12/09 00:36:22;;;;;;;14.10;11.10;;;;;;;;;;85646;210;3028199;-39
2023/12/09 00:39:00;;;;;;;14.00;11.20;;;;;;;;;;85579;210;3030561;-38
2023/12/09 00:41:40;;;;;;;14.60;11.40;;;;;;;;;;85622;210;3032444;-40
2023/12/09 00:44:20;;;;;;;14.10;11.30;;;;;;;;;;85520;210;3028485;-38
2023/12/09 00:46:57;;;;;;;14.10;11.10;;;;;;;;;;85575;210;3027578;-38
2023/12/09 00:49:38;;;;;;;14.40;11.60;;;;;;;;;;85579;210;3030689;-38
2023/12/09 00:52:17;;;;;;;13.80;11.00;;;;;;;;;;85511;210;3031793;-38
2023/12/09 00:54:57;;;;;;;14.00;10.80;;;;;;;;;;85638;210;3028693;-40
2023/12/09 00:57:36;;;;;;;12.70;10.50;;;;;;;;;;85626;210;3027894;-38
2023/12/09 01:00:16;;;;;;;13.50;10.50;;;;;;;;;;85638;210;3031293;-38
2023/12/09 01:02:56;;;;;;;13.90;11.30;;;;;;;;;;85584;210;3031493;-39
2023/12/09 01:05:36;;;;;;;13.20;10.60;;;;;;;;;;85607;210;3035044;-38
2023/12/09 01:08:13;;;;;;;13.60;10.50;;;;;;;;;;85641;210;3027814;-37
2023/12/09 01:10:54;;;;;;;13.50;10.80;;;;;;;;;;85621;210;3031021;-38
2023/12/09 01:13:39;;;;;;;13.30;10.40;;;;;;;;;;85613;210;3031382;-38
2023/12/09 01:16:17;;;;;;;12.80;10.80;;;;;;;;;;85620;210;3028424;-38
2023/12/09 01:18:57;;;;;;;12.30;10.30;;;;;;;;;;85615;210;3027822;-39
2023/12/09 01:21:37;;;;;;;13.10;10.30;;;;;;;;;;85633;210;3030371;-38
2023/12/09 01:24:18;;;;;;;12.80;10.40;;;;;;;;;;85627;210;3032014;-39
2023/12/09 01:26:54;;;;;;;13.10;10.60;;;;;;;;;;85650;210;3029314;-38
2023/12/09 01:29:36;;;;;;;13.90;10.60;;;;;;;;;;85472;210;3028526;-38
2023/12/09 01:32:16;;;;;;;12.90;10.30;;;;;;;;;;85650;210;3030752;-38
2023/12/09 01:34:57;;;;;;;13.50;10.10;;;;;;;;;;85626;210;3031382;-37
2023/12/09 01:37:37;;;;;;;12.30;9.40;;;;;;;;;;85545;210;3028786;-39
2023/12/09 01:40:17;;;;;;;12.30;10.00;;;;;;;;;;85644;210;3026953;-38
2023/12/09 01:42:58;;;;;;;13.00;10.10;;;;;;;;;;85652;210;3030680;-39
2023/12/09 01:45:39;;;;;;;12.60;9.80;;;;;;;;;;85582;210;3031377;-39
2023/12/09 01:48:20;;;;;;;12.50;9.90;;;;;;;;;;85598;210;3028966;-37
2023/12/09 01:50:59;;;;;;;13.00;10.10;;;;;;;;;;85618;211;3027464;-37
2023/12/09 01:53:38;;;;;;;12.60;10.00;;;;;;;;;;85673;211;3031012;-38
2023/12/09 01:56:22;;;;;;;12.40;9.70;;;;;;;;;;85597;211;3031763;-38
2023/12/09 01:58:59;;;;;;;12.50;10.00;;;;;;;;;;85586;211;3027931;-38
2023/12/09 02:01:40;;;;;;;13.30;9.80;;;;;;;;;;85627;211;3029204;-37
2023/12/09 02:04:20;;;;;;;12.10;10.50;;;;;;;;;;85618;211;3031520;-37
2023/12/09 02:06:58;;;;;;;12.80;10.20;;;;;;;;;;85570;211;3037467;-38
2023/12/09 02:09:41;;;;;;;12.90;10.20;;;;;;;;;;85638;211;3028823;-38
2023/12/09 02:12:25;;;;;;;13.00;10.20;;;;;;;;;;85652;211;3026968;-39
2023/12/09 02:15:10;;;;;;;13.30;10.00;;;;;;;;;;85587;211;3031130;-39
2023/12/09 02:17:55;;;;;;;12.80;10.00;;;;;;;;;;85625;211;3031829;-38
2023/12/09 02:20:35;;;;;;;13.20;10.20;;;;;;;;;;85608;211;3028821;-38
2023/12/09 02:23:13;;;;;;;12.80;10.00;;;;;;;;;;85658;211;3027692;-38
2023/12/09 02:25:56;;;;;;;13.70;10.20;;;;;;;;;;85590;211;3032386;-38
2023/12/09 02:28:38;;;;;;;13.10;9.80;;;;;;;;;;85669;211;3031531;-39
2023/12/09 02:31:22;;;;;;;13.00;10.20;;;;;;;;;;85606;211;3028249;-38
2023/12/09 02:34:03;;;;;;;12.90;10.20;;;;;;;;;;84510;211;3030029;-42
2023/12/09 02:36:48;;;;;;;12.60;10.00;;;;;;;;;;85588;211;3031314;-43
2023/12/09 02:39:28;;;;;;;12.20;9.50;;;;;;;;;;85541;211;3031748;-46
2023/12/09 02:42:07;;;;;;;13.40;10.30;;;;;;;;;;85617;211;3028676;-44
2023/12/09 02:44:46;;;;;;;14.30;10.70;;;;;;;;;;85596;211;3027388;-43
2023/12/09 02:47:24;;;;;;;12.90;9.80;;;;;;;;;;85493;211;3031938;-45
2023/12/09 02:50:02;;;;;;;12.80;9.90;;;;;;;;;;85558;210;3032137;-42
2023/12/09 02:52:39;;;;;;;13.20;10.30;;;;;;;;;;85568;210;3029571;-45
2023/12/09 02:55:17;;;;;;;13.30;10.00;;;;;;;;;;85617;210;3027349;-44
2023/12/09 02:57:55;;;;;;;12.80;10.20;;;;;;;;;;85567;210;3037693;-45
2023/12/09 03:00:34;;;;;;;12.80;9.90;;;;;;;;;;85625;210;3031398;-45
2023/12/09 03:03:13;;;;;;;13.10;10.30;;;;;;;;;;85620;210;3028629;-45
2023/12/09 03:05:54;;;;;;;13.70;10.20;;;;;;;;;;85600;210;3027848;-44
2023/12/09 03:08:38;;;;;;;13.90;10.40;;;;;;;;;;85610;210;3037298;-43
2023/12/09 03:11:16;;;;;;;13.90;10.30;;;;;;;;;;85625;210;3031391;-44
2023/12/09 03:13:56;;;;;;;13.70;9.60;;;;;;;;;;85638;210;3028773;-45
2023/12/09 03:16:38;;;;;;;13.50;10.00;;;;;;;;;;85582;210;3027919;-46
2023/12/09 03:19:18;;;;;;;13.30;10.00;;;;;;;;;;85624;210;3031349;-43
2023/12/09 03:21:55;;;;;;;14.10;10.30;;;;;;;;;;85585;210;3031805;-45
2023/12/09 03:24:35;;;;;;;13.20;10.00;;;;;;;;;;85631;210;3029003;-44
2023/12/09 03:27:18;;;;;;;12.90;9.70;;;;;;;;;;85597;210;3027525;-45
2023/12/09 03:29:59;;;;;;;12.90;9.80;;;;;;;;;;85591;210;3030905;-45
2023/12/09 03:32:40;;;;;;;13.40;10.20;;;;;;;;;;85596;210;3031377;-43
2023/12/09 03:35:20;;;;;;;13.10;9.70;;;;;;;;;;85588;210;3028704;-44
2023/12/09 03:37:58;;;;;;;13.10;10.00;;;;;;;;;;85469;210;3027092;-43
2023/12/09 03:40:34;;;;;;;13.50;10.00;;;;;;;;;;85620;210;3030624;-45
2023/12/09 03:43:12;;;;;;;13.10;9.50;;;;;;;;;;85577;210;3031216;-44
2023/12/09 03:45:49;;;;;;;13.90;10.10;;;;;;;;;;85630;210;3028441;-45
2023/12/09 03:48:28;;;;;;;13.80;9.80;;;;;;;;;;85588;210;3027556;-42
2023/12/09 03:51:09;;;;;;;13.40;9.90;;;;;;;;;;85599;211;3030555;-43
2023/12/09 03:53:46;;;;;;;13.60;9.80;;;;;;;;;;85575;211;3031849;-43
2023/12/09 03:56:26;;;;;;;13.00;9.70;;;;;;;;;;85653;211;3028553;-44
2023/12/09 03:59:05;;;;;;;13.40;10.20;;;;;;;;;;85589;211;3027753;-44
2023/12/09 04:01:51;;;;;;;14.00;9.80;;;;;;;;;;85645;211;3031299;-44
2023/12/09 04:04:28;;;;;;;13.90;10.40;;;;;;;;;;85675;211;3031055;-43
2023/12/09 04:07:06;;;;;;;13.90;9.70;;;;;;;;;;85638;211;3028226;-43
2023/12/09 04:09:46;;;;;;;13.70;9.60;;;;;;;;;;85669;211;3033287;-45
2023/12/09 04:12:22;;;;;;;14.60;9.60;;;;;;;;;;85619;211;3031227;-43
2023/12/09 04:15:01;;;;;;;13.60;9.90;;;;;;;;;;85672;211;3032311;-43
2023/12/09 04:17:39;;;;;;;14.80;10.20;;;;;;;;;;85640;211;3027883;-45
2023/12/09 04:20:17;;;;;;;14.00;10.30;;;;;;;;;;85694;211;3033453;-43
2023/12/09 04:22:56;;;;;;;14.40;10.20;;;;;;;;;;85670;211;3030930;-44
2023/12/09 04:25:32;;;;;;;14.30;10.10;;;;;;;;;;85670;211;3031209;-44
2023/12/09 04:28:09;;;;;;;14.20;10.30;;;;;;;;;;85570;211;3029024;-46
2023/12/09 04:30:46;;;;;;;14.30;10.20;;;;;;;;;;85625;211;3028819;-43
2023/12/09 04:33:23;;;;;;;13.90;10.40;;;;;;;;;;85632;211;3031199;-42
2023/12/09 04:36:02;;;;;;;14.20;9.70;;;;;;;;;;85657;211;3032084;-42
2023/12/09 04:38:42;;;;;;;15.50;10.10;;;;;;;;;;85584;211;3029641;-43
2023/12/09 04:41:19;;;;;;;13.70;9.50;;;;;;;;;;85640;211;3027824;-44
2023/12/09 04:44:00;;;;;;;14.00;9.90;;;;;;;;;;85632;211;3030626;-44
2023/12/09 04:46:37;;;;;;;14.10;10.10;;;;;;;;;;85640;211;3031074;-43
2023/12/09 04:49:13;;;;;;;14.80;10.50;;;;;;;;;;85655;210;3027991;-42
2023/12/09 04:51:51;;;;;;;14.50;10.40;;;;;;;;;;85729;210;3028598;-45
2023/12/09 04:54:29;;;;;;;15.30;10.40;;;;;;;;;;85727;210;3031559;-44
2023/12/09 04:57:07;;;;;;;14.60;10.20;;;;;;;;;;85713;210;3032609;-44
2023/12/09 04:59:48;;;;;;;14.20;10.10;;;;;;;;;;85779;210;3028748;-45
2023/12/09 05:02:28;;;;;;;14.60;9.90;;;;;;;;;;85683;210;3027974;-44
2023/12/09 05:05:09;;;;;;;14.20;10.00;;;;;;;;;;85627;210;3032155;-43
2023/12/09 05:07:47;;;;;;;14.20;10.00;;;;;;;;;;85646;210;3031751;-44
2023/12/09 05:10:27;;;;;;;13.60;9.60;;;;;;;;;;85590;210;3029028;-44
2023/12/09 05:13:04;;;;;;;14.90;10.10;;;;;;;;;;85691;210;3027796;-45
2023/12/09 05:15:42;;;;;;;14.10;9.90;;;;;;;;;;85682;210;3030976;-44
2023/12/09 05:18:19;;;;;;;14.60;10.30;;;;;;;;;;85615;210;3032019;-45
2023/12/09 05:20:57;;;;;;;13.50;9.90;;;;;;;;;;85621;210;3028025;-44
2023/12/09 05:23:35;;;;;;;14.50;9.90;;;;;;;;;;85636;210;3027684;-44
2023/12/09 05:26:23;;;;;;;15.40;9.90;;;;;;;;;;85573;210;3031478;-46
2023/12/09 05:28:59;;;;;;;13.60;9.70;;;;;;;;;;85645;210;3031895;-43
2023/12/09 05:31:36;;;;;;;14.30;10.20;;;;;;;;;;85765;210;3035883;-44
2023/12/09 05:34:12;;;;;;;14.90;10.00;;;;;;;;;;85680;210;3028363;-47
2023/12/09 05:36:51;;;;;;;14.40;10.00;;;;;;;;;;85635;210;3031019;-43
2023/12/09 05:39:31;;;;;;;14.10;10.30;;;;;;;;;;85634;210;3032061;-44
2023/12/09 05:42:07;;;;;;;14.40;10.40;;;;;;;;;;85635;210;3034396;-44
2023/12/09 05:44:50;;;;;;;15.10;10.00;;;;;;;;;;85651;210;3027264;-44
2023/12/09 05:47:26;;;;;;;13.40;9.90;;;;;;;;;;85635;210;3030387;-43
2023/12/09 05:50:03;;;;;;;14.40;10.40;;;;;;;;;;85545;210;3032468;-43
2023/12/09 05:52:43;;;;;;;13.80;10.20;;;;;;;;;;85603;210;3028585;-44
2023/12/09 05:55:21;;;;;;;14.00;10.10;;;;;;;;;;85638;210;3027092;-43
2023/12/09 05:58:01;;;;;;;14.10;9.90;;;;;;;;;;85634;210;3031060;-43
2023/12/09 06:00:41;;;;;;;13.80;9.80;;;;;;;;;;85454;210;3031814;-43
2023/12/09 06:03:18;;;;;;;13.80;9.70;;;;;;;;;;85612;210;3028538;-42
2023/12/09 06:05:57;;;;;;;13.30;9.80;;;;;;;;;;85567;210;3027843;-43
2023/12/09 06:08:35;;;;;;;12.80;9.40;;;;;;;;;;85558;210;3032381;-43
2023/12/09 06:11:11;;;;;;;14.30;10.00;;;;;;;;;;85511;210;3032153;-43
2023/12/09 06:13:54;;;;;;;13.80;9.60;;;;;;;;;;85621;210;3028748;-41
2023/12/09 06:16:32;;;;;;;14.00;10.10;;;;;;;;;;85600;210;3027603;-44
2023/12/09 06:19:09;;;;;;;13.80;9.70;;;;;;;;;;85686;210;3031537;-42
2023/12/09 06:21:48;;;;;;;13.00;9.60;;;;;;;;;;85570;210;3031524;-42
2023/12/09 06:24:28;;;;;;;14.80;9.50;;;;;;;;;;85625;210;3029285;-43
2023/12/09 06:27:06;;;;;;;13.60;9.50;;;;;;;;;;85671;210;3027674;-42
2023/12/09 06:29:46;;;;;;;12.80;9.60;;;;;;;;;;85615;210;3030586;-42
2023/12/09 06:32:24;;;;;;;13.50;10.00;;;;;;;;;;85667;210;3032670;-42
2023/12/09 06:35:02;;;;;;;13.20;9.70;;;;;;;;;;85655;210;3029255;-43
2023/12/09 06:37:41;;;;;;;13.60;10.00;;;;;;;;;;85626;210;3027488;-42
2023/12/09 06:40:20;;;;;;;13.80;9.90;;;;;;;;;;85664;210;3030606;-44
2023/12/09 06:42:59;;;;;;;14.70;10.10;;;;;;;;;;85637;210;3031932;-44
2023/12/09 06:45:39;;;;;;;13.40;9.70;;;;;;;;;;85558;210;3028613;-42
2023/12/09 06:48:18;;;;;;;13.30;9.60;;;;;;;;;;85644;210;3028880;-42
2023/12/09 06:50:56;;;;;;;13.10;10.20;;;;;;;;;;85612;210;3031882;-37
2023/12/09 06:53:40;;;;;;;13.20;9.50;;;;;;;;;;85727;210;3038256;-39
2023/12/09 06:56:23;;;;;;;13.40;9.60;;;;;;;;;;85630;210;3027666;-37
2023/12/09 06:59:05;;;;;;;13.20;9.70;;;;;;;;;;85867;210;3027476;-37
2023/12/09 07:01:49;;;;;;;13.30;9.50;;;;;;;;;;85750;210;3031295;-38
2023/12/09 07:04:25;;;;;;;13.10;9.70;;;;;;;;;;85871;210;3031283;-38
2023/12/09 07:07:06;;;;;;;13.40;9.50;;;;;;;;;;85765;210;3028697;-37
2023/12/09 07:09:46;;;;;;;13.90;10.00;;;;;;;;;;85853;210;3027852;-38
2023/12/09 07:12:23;;;;;;;13.10;9.50;;;;;;;;;;85780;210;3031121;-37
2023/12/09 07:15:01;;;;;;;13.70;9.60;;;;;;;;;;85832;210;3031823;-36
2023/12/09 07:17:42;;;;;;;12.60;9.50;;;;;;;;;;85792;210;3028695;-36
2023/12/09 07:20:19;;;;;;;12.10;9.00;;;;;;;;;;85781;210;3027827;-37
2023/12/09 07:22:56;;;;;;;12.90;9.30;;;;;;;;;;85782;210;3030940;-37
2023/12/09 07:25:32;;;;;;;13.30;9.60;;;;;;;;;;85846;210;3031292;-36
2023/12/09 07:28:10;;;;;;;12.90;9.70;;;;;;;;;;85806;210;3029056;-36
2023/12/09 07:30:47;;;;;;;12.80;9.00;;;;;;;;;;85829;210;3026832;-36
2023/12/09 07:33:25;;;;;;;12.50;9.30;;;;;;;;;;85757;210;3030423;-37
2023/12/09 07:36:07;;;;;;;12.70;9.20;;;;;;;;;;85770;210;3031567;-37
2023/12/09 07:38:48;;;;;;;;;;;;;;;;;;85816;210;3028371;-37
2023/12/09 07:41:27;;;;;;;12.50;9.50;;;;;;;;;;85839;210;3028650;-37
2023/12/09 07:44:08;;;;;;;13.40;9.80;;;;;;;;;;85702;210;3030806;-36
2023/12/09 07:46:45;;;;;;;12.10;9.30;;;;;;;;;;85751;210;3031233;-44
2023/12/09 07:49:24;;;;;;;13.20;9.10;;;;;;;;;;85817;210;3028606;-43
2023/12/09 07:52:03;;;;;;;12.70;9.50;;;;;;;;;;85834;210;3027276;-44
2023/12/09 07:54:42;;;;;;;12.70;9.20;;;;;;;;;;85774;210;3030978;-44
2023/12/09 07:57:22;;;;;;;12.80;9.30;;;;;;;;;;85751;210;3032205;-45
2023/12/09 08:00:06;;;;;;;12.50;9.40;;;;;;;;;;85828;210;3028708;-46
2023/12/09 08:02:45;;;;;;;13.30;9.40;;;;;;;;;;85840;211;3027793;-45
2023/12/09 08:05:23;;;;;;;14.20;10.00;;;;;;;;;;85711;210;3030534;-44
2023/12/09 08:08:01;;;;;;;13.30;9.10;;;;;;;;;;85672;210;3031178;-44
2023/12/09 08:10:38;;;;;;;12.90;9.40;;;;;;;;;;85614;210;3028190;-44
2023/12/09 08:13:23;;;;;;;13.60;9.90;;;;;;;;;;85636;210;3027025;-45
2023/12/09 08:16:00;;;;;;;14.00;9.40;;;;;;;;;;85648;210;3030927;-48
2023/12/09 08:18:42;;;;;;;13.20;9.60;;;;;;;;;;85627;210;3031257;-45
2023/12/09 08:21:20;;;;;;;14.20;9.90;;;;;;;;;;85665;210;3028206;-44
2023/12/09 08:23:59;;;;;;;12.70;9.40;;;;;;;;;;85692;210;3027752;-46
2023/12/09 08:26:41;;;;;;;13.00;9.60;;;;;;;;;;85614;210;3030736;-48
2023/12/09 08:29:22;;;;;;;13.60;9.80;;;;;;;;;;85629;210;3031636;-44
2023/12/09 08:32:03;;;;;;;13.60;9.50;;;;;;;;;;85622;210;3027996;-45
2023/12/09 08:34:42;;;;;;;14.00;9.10;;;;;;;;;;85616;210;3028784;-44
2023/12/09 08:37:29;;;;;;;13.40;9.90;;;;;;;;;;85631;210;3030539;-44
2023/12/09 08:40:11;;;;;;;14.60;9.90;;;;;;;;;;85628;210;3031218;-45
2023/12/09 08:42:51;;;;;;;13.80;9.60;;;;;;;;;;85578;210;3028682;-45
2023/12/09 08:45:31;;;;;;;14.10;10.10;;;;;;;;;;85592;210;3028059;-38
2023/12/09 08:48:09;;;;;;;13.60;9.80;;;;;;;;;;85622;210;3031573;-38
2023/12/09 08:50:49;;;;;;;14.70;9.80;;;;;;;;;;85647;210;3031328;-38
2023/12/09 08:53:32;;;;;;;15.80;9.90;;;;;;;;;;85664;210;3027972;-38
2023/12/09 08:56:11;;;;;;;15.50;10.10;;;;;;;;;;85614;210;3034334;-39
2023/12/09 08:58:50;;;;;;;15.60;9.90;;;;;;;;;;85576;210;3031784;-39
2023/12/09 09:01:28;;;;;;;15.90;9.80;;;;;;;;;;85637;210;3031934;-39
2023/12/09 09:04:07;;;;;;;14.60;9.90;;;;;;;;;;85597;210;3027961;-38
2023/12/09 09:06:46;;;;;;;14.30;9.80;;;;;;;;;;85659;210;3033777;-39
2023/12/09 09:09:23;;;;;;;14.40;9.40;;;;;;;;;;85617;210;3030627;-39
2023/12/09 09:12:05;;;;;;;15.60;10.00;;;;;;;;;;85615;210;3031231;-39
2023/12/09 09:14:46;;;;;;;13.30;9.60;;;;;;;;;;85608;210;3028655;-38
2023/12/09 09:17:25;;;;;;;13.50;9.50;;;;;;;;;;85665;210;3028704;-39
2023/12/09 09:20:02;;;;;;;14.90;9.90;;;;;;;;;;85640;210;3030837;-39
2023/12/09 09:22:46;;;;;;;14.50;9.80;;;;;;;;;;85636;210;3031759;-38
2023/12/09 09:25:25;;;;;;;15.20;10.40;;;;;;;;;;85561;210;3030028;-44
2023/12/09 09:28:15;;;;;;;14.00;9.60;;;;;;;;;;85637;210;3026891;-46
2023/12/09 09:30:54;;;;;;;14.50;10.00;;;;;;;;;;85648;210;3030435;-46
2023/12/09 09:33:37;;;;;;;14.00;10.00;;;;;;;;;;85601;210;3031954;-44
2023/12/09 09:36:16;;;;;;;14.00;10.10;;;;;;;;;;85578;210;3028732;-46
2023/12/09 09:38:53;;;;;;;15.00;10.20;;;;;;;;;;85642;210;3028018;-45
2023/12/09 09:41:54;;;;;;;14.70;10.30;;;;;;;;;;85626;210;3031360;-43
2023/12/09 09:44:36;;;;;;;15.00;10.40;;;;;;;;;;85589;210;3030888;-46
2023/12/09 09:47:15;;;;;;;14.10;10.30;;;;;;;;;;85565;210;3029640;-46
2023/12/09 09:49:56;;;;;;;14.00;10.30;;;;;;;;;;85615;210;3027383;-46
2023/12/09 09:52:38;;;;;;;15.30;10.10;;;;;;;;;;85594;210;3030406;-43
2023/12/09 09:55:22;;;;;;;15.30;10.60;;;;;;;;;;85606;210;3031954;-44
2023/12/09 09:57:58;;;;;;;15.50;10.30;;;;;;;;;;85585;210;3034086;-45
2023/12/09 10:00:38;;;;;;;15.40;10.60;;;;;;;;;;85609;210;3028306;-44
2023/12/09 10:03:20;;;;;;;15.20;10.70;;;;;;;;;;85547;210;3030917;-39
2023/12/09 10:05:59;;;;;;;14.40;10.70;;;;;;;;;;85543;211;3032526;-40
2023/12/09 10:08:41;;;;;;;15.10;10.80;;;;;;;;;;85568;211;3028204;-39
2023/12/09 10:11:18;;;;;;;16.00;11.00;;;;;;;;;;85603;211;3028024;-40
2023/12/09 10:13:58;;;;;;;15.30;10.70;;;;;;;;;;85584;211;3030450;-39
2023/12/09 10:16:35;;;;;;;15.40;10.60;;;;;;;;;;85646;210;3032731;-34
2023/12/09 10:19:16;;;;;;;14.40;10.20;;;;;;;;;;85552;211;3028869;-37
2023/12/09 10:21:54;;;;;;;13.80;10.60;;;;;;;;;;85657;211;3027787;-36
2023/12/09 10:24:32;;;;;;;14.40;10.50;;;;;;;;;;85596;211;3030734;-37
2023/12/09 10:27:12;;;;;;;15.30;10.70;;;;;;;;;;85586;211;3031875;-36
2023/12/09 10:29:49;;;;;;;15.70;10.40;;;;;;;;;;85513;212;3028403;-36
2023/12/09 10:32:27;;;;;;;14.80;10.30;;;;;;;;;;85510;212;3027163;-38
2023/12/09 10:35:06;;;;;;;15.40;10.90;;;;;;;;;;84142;211;3030896;-39
2023/12/09 10:37:45;;;;;;;14.80;10.60;;;;;;;;;;85631;211;3032673;-35
2023/12/09 10:40:25;;;;;;;14.20;10.50;;;;;;;;;;85624;211;3028798;-39
2023/12/09 10:43:04;;;;;;;15.50;11.10;;;;;;;;;;85608;211;3027712;-38
2023/12/09 10:45:43;;;;;;;14.80;10.50;;;;;;;;;;85641;211;3030800;-36
2023/12/09 10:48:21;;;;;;;15.90;11.20;;;;;;;;;;85500;211;3031978;-40
2023/12/09 10:50:57;;;;;;;15.10;10.70;;;;;;;;;;85634;211;3029357;-38
2023/12/09 10:53:34;;;;;;;14.00;10.50;;;;;;;;;;85592;211;3028133;-36
2023/12/09 10:56:12;;;;;;;15.70;11.10;;;;;;;;;;85649;211;3031123;-36
2023/12/09 10:58:56;;;;;;;16.00;10.80;;;;;;;;;;85592;211;3032062;-34
2023/12/09 11:01:34;;;;;;;15.10;11.10;;;;;;;;;;85625;211;3028731;-37
2023/12/09 11:04:13;;;;;;;14.20;10.70;;;;;;;;;;85652;211;3027223;-36
2023/12/09 11:06:52;;;;;;;15.20;10.50;;;;;;;;;;85640;211;3030446;-36
2023/12/09 11:09:29;;;;;;;15.50;11.10;;;;;;;;;;85634;211;3039219;-36
2023/12/09 11:12:08;;;;;;;14.90;11.20;;;;;;;;;;85697;211;3027945;-35
2023/12/09 11:14:45;;;;;;;16.40;11.60;;;;;;;;;;85630;211;3027070;-35
2023/12/09 11:17:40;;;;;;;17.30;11.40;;;;;;;;;;85532;211;3030885;-36
2023/12/09 11:20:19;;;;;;;14.50;10.40;;;;;;;;;;85569;212;3037849;-38
2023/12/09 11:22:59;;;;;;;16.50;11.30;;;;;;;;;;85557;212;3028659;-38
2023/12/09 11:25:40;;;;;;;15.70;11.10;;;;;;;;;;85602;211;3027491;-39
2023/12/09 11:28:24;;;;;;;15.50;11.40;;;;;;;;;;85562;212;3031894;-42
2023/12/09 11:31:05;;;;;;;15.10;11.10;;;;;;;;;;85611;212;3031342;-36
2023/12/09 11:33:43;;;;;;;15.50;11.50;;;;;;;;;;85578;212;3028683;-36
2023/12/09 11:36:23;;;;;;;15.90;11.70;;;;;;;;;;85583;212;3027683;-36
2023/12/09 11:39:02;;;;;;;16.10;11.70;;;;;;;;;;85590;211;3030602;-38
2023/12/09 11:41:40;;;;;;;16.50;12.00;;;;;;;;;;85607;211;3032121;-38
2023/12/09 11:44:18;;;;;;;15.90;11.70;;;;;;;;;;85721;211;3028411;-38
2023/12/09 11:46:58;;;;;;;16.10;12.60;;;;;;;;;;85653;211;3027637;-38
2023/12/09 11:49:36;;;;;;;15.60;11.00;;;;;;;;;;85629;211;3031537;-38
2023/12/09 11:52:13;;;;;;;15.90;11.80;;;;;;;;;;85648;211;3031888;-38
2023/12/09 11:54:50;;;;;;;15.60;11.40;;;;;;;;;;85620;211;3028997;-38
2023/12/09 11:57:27;;;;;;;15.00;11.00;;;;;;;;;;85551;211;3027685;-38
2023/12/09 12:00:06;;;;;;;15.70;11.30;;;;;;;;;;85580;211;3031187;-37
2023/12/09 12:02:44;;;;;;;15.90;11.80;;;;;;;;;;85630;211;3031264;-38
2023/12/09 12:05:25;;;;;;;15.60;11.30;;;;;;;;;;85632;211;3028499;-37
2023/12/09 12:08:05;;;;;;;15.10;11.20;;;;;;;;;;85647;211;3027272;-38
2023/12/09 12:10:48;;;;;;;14.80;11.00;;;;;;;;;;85549;211;3030526;-38
2023/12/09 12:13:28;;;;;;;15.10;11.00;;;;;;;;;;85621;211;3031980;-38
2023/12/09 12:16:06;;;;;;;15.90;11.00;;;;;;;;;;85631;211;3028495;-38
2023/12/09 12:18:44;;;;;;;14.80;11.10;;;;;;;;;;85575;211;3028586;-38
2023/12/09 12:21:21;;;;;;;15.40;11.70;;;;;;;;;;85444;211;3031428;-39
2023/12/09 12:23:58;;;;;;;14.90;10.90;;;;;;;;;;85608;211;3032304;-37
2023/12/09 12:26:34;;;;;;;15.90;11.30;;;;;;;;;;85591;211;3028288;-38
2023/12/09 12:29:19;;;;;;;15.30;11.10;;;;;;;;;;85625;211;3028486;-38
2023/12/09 12:32:00;;;;;;;15.50;11.50;;;;;;;;;;85725;211;3037496;-38
2023/12/09 12:34:36;;;;;;;14.80;10.90;;;;;;;;;;85643;211;3031357;-38
2023/12/09 12:37:13;;;;;;;14.40;11.10;;;;;;;;;;85626;211;3028413;-38
2023/12/09 12:39:50;;;;;;;14.10;11.10;;;;;;;;;;85554;211;3027335;-37
2023/12/09 12:42:27;;;;;;;14.50;10.90;;;;;;;;;;85644;211;3031300;-40
2023/12/09 12:45:16;;;;;;;14.80;11.10;;;;;;;;;;85545;211;3031545;-40
2023/12/09 12:47:53;;;;;;;15.40;11.20;;;;;;;;;;85590;211;3028780;-41
2023/12/09 12:50:29;;;;;;;14.90;11.20;;;;;;;;;;85570;211;3029126;-39
2023/12/09 12:53:06;;;;;;;14.20;10.60;;;;;;;;;;85569;211;3030861;-40
2023/12/09 12:55:42;;;;;;;15.50;11.20;;;;;;;;;;85588;211;3031204;-40
2023/12/09 12:58:19;;;;;;;14.70;10.90;;;;;;;;;;85615;211;3028959;-40
2023/12/09 13:00:56;;;;;;;14.40;11.20;;;;;;;;;;85520;211;3027441;-40
2023/12/09 13:03:33;;;;;;;14.80;11.30;;;;;;;;;;85569;211;3031241;-40
2023/12/09 13:06:11;;;;;;;15.40;11.40;;;;;;;;;;85634;211;3032202;-40
2023/12/09 13:08:47;;;;;;;14.80;11.20;;;;;;;;;;85605;211;3028346;-41
2023/12/09 13:11:24;;;;;;;15.20;11.60;;;;;;;;;;85491;211;3026928;-40
2023/12/09 13:14:03;;;;;;;15.70;11.70;;;;;;;;;;85632;211;3031531;-40
2023/12/09 13:16:41;;;;;;;14.30;11.10;;;;;;;;;;85621;211;3031725;-40
2023/12/09 13:19:18;;;;;;;15.90;11.30;;;;;;;;;;85597;211;3028497;-38
2023/12/09 13:21:55;;;;;;;15.40;11.50;;;;;;;;;;85531;211;3027294;-38
2023/12/09 13:24:32;;;;;;;16.30;12.10;;;;;;;;;;85568;211;3030716;-38
2023/12/09 13:27:09;;;;;;;14.40;11.60;;;;;;;;;;85580;211;3031808;-38
2023/12/09 13:29:48;;;;;;;15.10;11.30;;;;;;;;;;85603;211;3028625;-39
2023/12/09 13:32:25;;;;;;;15.40;11.50;;;;;;;;;;85408;211;3027869;-38
2023/12/09 13:35:03;;;;;;;15.60;12.00;;;;;;;;;;85614;211;3030833;-38
2023/12/09 13:37:40;;;;;;;15.00;11.90;;;;;;;;;;85588;211;3031208;-38
2023/12/09 13:40:19;;;;;;;15.40;11.80;;;;;;;;;;85553;211;3027921;-38
2023/12/09 13:42:56;;;;;;;14.30;11.50;;;;;;;;;;85513;211;3027362;-38
2023/12/09 13:45:35;;;;;;;15.20;12.10;;;;;;;;;;85603;211;3030985;-39
2023/12/09 13:48:13;;;;;;;15.80;12.30;;;;;;;;;;85528;211;3032045;-39
2023/12/09 13:50:55;;;;;;;15.40;11.80;;;;;;;;;;85552;211;3028360;-37
2023/12/09 13:53:39;;;;;;;15.20;12.10;;;;;;;;;;85563;211;3034479;-38
2023/12/09 13:56:20;;;;;;;15.00;12.00;;;;;;;;;;85596;211;3030629;-38
2023/12/09 13:58:58;;;;;;;15.50;12.00;;;;;;;;;;85607;211;3032182;-38
2023/12/09 14:01:37;;;;;;;16.00;12.60;;;;;;;;;;85532;211;3028411;-37
2023/12/09 14:04:15;;;;;;;16.10;12.30;;;;;;;;;;85621;211;3027351;-39
2023/12/09 14:06:51;;;;;;;15.60;12.30;;;;;;;;;;85644;211;3031513;-38
2023/12/09 14:09:28;;;;;;;15.90;13.00;;;;;;;;;;85605;211;3032308;-39
2023/12/09 14:12:08;;;;;;;15.10;12.60;;;;;;;;;;85576;211;3028554;-42
2023/12/09 14:14:45;;;;;;;15.10;12.10;;;;;;;;;;85560;211;3027972;-38
2023/12/09 14:17:23;;;;;;;14.70;12.30;;;;;;;;;;85612;211;3030755;-38
2023/12/09 14:20:00;;;;;;;14.40;11.80;;;;;;;;;;85616;211;3031065;-39
2023/12/09 14:22:38;;;;;;;15.40;11.50;;;;;;;;;;85564;211;3028899;-38
2023/12/09 14:25:17;;;;;;;15.00;12.00;;;;;;;;;;85494;211;3027582;-38
2023/12/09 14:27:56;;;;;;;14.80;11.90;;;;;;;;;;85452;211;3032262;-38
2023/12/09 14:30:33;;;;;;;14.70;11.30;;;;;;;;;;85589;211;3032707;-39
2023/12/09 14:33:10;;;;;;;14.50;11.70;;;;;;;;;;85552;211;3028933;-39
2023/12/09 14:35:47;;;;;;;14.50;11.60;;;;;;;;;;85648;211;3027918;-39
2023/12/09 14:38:24;;;;;;;15.20;12.20;;;;;;;;;;85569;211;3030306;-41
2023/12/09 14:41:00;;;;;;;14.50;12.00;;;;;;;;;;85560;211;3031425;-41
2023/12/09 14:43:39;;;;;;;13.90;11.80;;;;;;;;;;85543;211;3028436;-42
2023/12/09 14:46:16;;;;;;;13.80;11.60;;;;;;;;;;85641;211;3027774;-42
2023/12/09 14:48:53;;;;;;;14.30;11.70;;;;;;;;;;85601;211;3029758;-42
2023/12/09 14:51:29;;;;;;;14.30;11.70;;;;;;;;;;85615;211;3031243;-41
2023/12/09 14:54:19;;;;;;;15.70;12.40;;;;;;;;;;85492;211;3028182;-42
2023/12/09 14:56:56;;;;;;;13.80;11.70;;;;;;;;;;85555;211;3027126;-42
2023/12/09 14:59:34;;;;;;;14.90;12.20;;;;;;;;;;85510;211;3031327;-41
2023/12/09 15:02:10;;;;;;;15.00;12.40;;;;;;;;;;85543;211;3031990;-42
2023/12/09 15:04:47;;;;;;;14.50;12.00;;;;;;;;;;85555;212;3028728;-42
2023/12/09 15:07:24;;;;;;;14.50;11.60;;;;;;;;;;85575;212;3028525;-42
2023/12/09 15:10:01;;;;;;;14.50;11.90;;;;;;;;;;85553;212;3030361;-42
2023/12/09 15:12:37;;;;;;;14.00;11.70;;;;;;;;;;85554;212;3031151;-44
2023/12/09 15:15:17;;;;;;;13.30;11.40;;;;;;;;;;85513;211;3028486;-42
2023/12/09 15:17:54;;;;;;;14.20;12.30;;;;;;;;;;85590;211;3027785;-42